Latest Weather Observations for Bulman

IDD60801

Issued at 10:31 pm CST Saturday 23 July 2016 (issued every 30 minutes, with the page automatically refreshed every 10 minutes)

About weather observations | Map of weather stations | Latest weather observations for NT | Other Formats
Station Details ID: 014627 Name: BULMAN Lat: -13.67 Lon: 134.34 Height: 103.4 m
Data from the previous 72 hours. | See also: Recent months at Bulman
Date/Time
CST
Temp
°C
App
Temp
°C
Dew
Point
°C
Rel
Hum
%
Delta-T
°C
Wind Press
QNH
hPa
Press
MSL
hPa
Rain since
9am
mm
Dir  Spd
km/h
Gust
km/h
Spd
kts
Gust
kts
23/10:30pm 25.8 27.6 18.2 63 4.8 ESE 6 7 3 4 1012.6 1012.2 0.0
23/10:00pm 26.6 29.1 18.2 60 5.3 ENE 2 7 1 4 1012.5 1012.1 0.0
23/09:30pm 27.3 28.9 17.8 56 6.0 ENE 6 9 3 5 1012.2 1011.8 0.0
23/09:00pm 28.0 29.3 17.5 52 6.6 E 7 13 4 7 1012.0 1011.6 0.0
23/08:30pm 28.7 29.3 16.9 48 7.4 ESE 9 17 5 9 1011.8 1011.4 0.0
23/08:00pm 29.1 29.6 16.6 46 7.8 ESE 9 17 5 9 1011.4 1011.0 0.0
23/07:30pm 29.9 29.7 16.7 45 8.3 ESE 13 24 7 13 1011.0 1010.6 0.0
23/07:00pm 30.5 30.6 16.5 43 8.8 ESE 11 17 6 9 1010.6 1010.2 0.0
23/06:30pm 31.1 31.0 15.9 40 9.5 ESE 11 17 6 9 1010.4 1010.0 0.0
23/06:00pm 32.0 30.8 15.1 36 10.5 ESE 15 22 8 12 1010.0 1009.6 0.0
23/05:30pm 32.8 31.5 14.9 34 11.1 E 15 22 8 12 1009.8 1009.4 0.0
23/05:00pm 33.2 33.4 15.7 35 11.0 ESE 9 20 5 11 1009.8 1009.4 0.0
23/04:30pm 33.3 32.4 14.8 32 11.5 ESE 13 26 7 14 1009.8 1009.4 0.0
23/04:00pm 33.3 31.6 14.8 32 11.5 ESE 17 28 9 15 1009.8 1009.4 0.0
23/03:30pm 33.3 32.0 14.8 32 11.5 ESE 15 28 8 15 1010.1 1009.7 0.0
23/03:00pm 34.4 34.0 16.3 34 11.5 ESE 13 20 7 11 1010.3 1009.9 0.0
23/02:30pm 33.5 33.0 15.9 34 11.1 E 13 20 7 11 1010.7 1010.3 0.0
23/02:00pm 34.0 33.1 15.9 33 11.4 E 15 26 8 14 1011.0 1010.6 0.0
23/01:30pm 32.5 31.1 15.5 36 10.6 ESE 17 32 9 17 1011.5 1011.1 0.0
23/01:00pm 32.2 31.1 15.2 35 10.6 SE 15 24 8 13 1011.9 1011.5 0.0
23/12:30pm 32.1 31.9 16.8 40 9.7 ESE 13 19 7 10 1012.3 1011.9 0.0
23/12:00pm 31.8 32.0 17.7 43 9.1 E 13 19 7 10 1013.0 1012.6 0.0
23/11:30am 31.2 31.6 18.2 46 8.4 E 13 20 7 11 1013.5 1013.1 0.0
23/11:00am 30.2 29.9 17.3 46 8.2 E 15 24 8 13 1013.8 1013.4 0.0
23/10:30am 29.9 30.9 18.7 51 7.3 E 11 17 6 9 1013.9 1013.5 0.0
23/10:00am 28.8 30.4 19.1 55 6.3 ESE 9 15 5 8 1014.0 1013.6 0.0
23/09:30am 27.4 29.4 20.0 64 4.8 N 9 13 5 7 1014.0 1013.6 0.0
23/09:00am 26.2 28.7 19.8 68 4.2 NNE 6 13 3 7 1013.9 1013.5 0.0
23/08:30am 24.3 27.8 19.6 75 3.0 CALM 0 0 0 0 1013.9 1013.5 0.0
23/08:00am 21.8 25.0 18.8 83 1.9 CALM 0 0 0 0 1013.7 1013.3 0.0
23/07:30am 19.4 22.1 17.7 90 1.0 CALM 0 0 0 0 1013.6 1013.2 0.0
23/07:00am 18.9 21.4 17.2 90 1.0 CALM 0 0 0 0 1013.2 1012.8 0.0
23/06:30am 19.0 21.4 17.1 89 1.2 CALM 0 0 0 0 1013.0 1012.6 0.0
23/06:00am 19.3 21.3 17.8 91 0.9 S 4 6 2 3 1012.6 1012.2 0.0
23/05:30am 19.3 21.9 17.6 90 1.0 CALM 0 0 0 0 1012.5 1012.1 0.0
23/05:00am 19.6 22.4 17.9 90 1.1 CALM 0 0 0 0 1012.2 1011.8 0.0
23/04:30am 19.6 22.3 17.7 89 1.2 CALM 0 0 0 0 1012.1 1011.7 0.0
23/04:00am 20.0 22.8 18.0 88 1.2 CALM 0 0 0 0 1011.9 1011.5 0.0
23/03:30am 20.3 23.1 17.9 86 1.5 CALM 0 0 0 0 1011.9 1011.5 0.0
23/03:00am 20.6 23.6 18.4 87 1.4 CALM 0 0 0 0 1012.0 1011.6 0.0
23/02:30am 21.1 24.0 18.1 83 1.9 CALM 0 0 0 0 1012.1 1011.7 0.0
23/02:00am 21.6 24.6 18.4 82 2.0 CALM 0 0 0 0 1012.2 1011.8 0.0
23/01:30am 22.0 25.1 18.6 81 2.1 CALM 0 0 0 0 1012.3 1011.9 0.0
23/01:00am 22.6 25.7 18.6 78 2.5 CALM 0 0 0 0 1012.6 1012.2 0.0
23/12:30am 23.4 26.1 18.7 75 3.0 SE 2 6 1 3 1012.7 1012.3 0.0
23/12:00am 25.0 27.2 19.1 70 3.8 E 6 9 3 5 1012.7 1012.3 0.0
 
Date/Time
CST
Temp
°C
App
Temp
°C
Dew
Point
°C
Rel
Hum
%
Delta-T
°C
Wind Press
QNH
hPa
Press
MSL
hPa
Rain since
9am
mm
Dir  Spd
km/h
Gust
km/h
Spd
kts
Gust
kts
22/11:30pm 25.5 27.9 19.6 70 3.8 ENE 6 9 3 5 1012.7 1012.3 0.0
22/11:00pm 25.8 28.0 19.2 67 4.3 ESE 6 9 3 5 1012.9 1012.5 0.0
22/10:30pm 26.6 28.9 19.5 65 4.6 E 6 15 3 8 1012.8 1012.4 0.0
22/10:00pm 27.2 29.0 19.5 62 5.0 E 9 17 5 9 1012.7 1012.3 0.0
22/09:30pm 27.7 29.3 19.2 60 5.5 ESE 9 13 5 7 1012.8 1012.4 0.0
22/09:00pm 28.1 29.7 19.1 58 5.8 ESE 9 19 5 10 1012.7 1012.3 0.0
22/08:30pm 28.6 29.6 18.7 55 6.4 ESE 11 17 6 9 1012.3 1011.9 0.0
22/08:00pm 29.1 29.7 18.5 52 6.8 SE 13 20 7 11 1011.9 1011.5 0.0
22/07:30pm 29.1 30.0 16.6 46 7.8 SE 7 11 4 6 1011.5 1011.1 0.0
22/07:00pm 29.6 30.6 16.4 45 8.3 ESE 6 9 3 5 1011.3 1010.9 0.0
22/06:30pm 30.5 31.6 16.5 43 8.8 SE 6 11 3 6 1011.0 1010.6 0.0
22/06:00pm 31.3 31.6 16.1 40 9.5 SE 9 13 5 7 1010.9 1010.5 0.0
22/05:30pm 32.1 31.1 15.6 37 10.3 ESE 15 22 8 12 1010.7 1010.3 0.0
22/05:00pm 32.3 31.6 15.3 35 10.6 ESE 13 22 7 12 1010.8 1010.4 0.0
22/04:30pm 32.9 32.4 15.0 34 11.1 SE 11 17 6 9 1010.6 1010.2 0.0
22/04:00pm 33.5 32.8 15.5 34 11.3 SE 13 20 7 11 1010.7 1010.3 0.0
22/03:30pm 32.5 31.3 15.1 35 10.8 E 15 26 8 14 1010.8 1010.4 0.0
22/03:00pm 33.4 33.1 15.4 34 11.3 ESE 11 24 6 13 1011.0 1010.6 0.0
22/02:30pm 32.9 31.9 14.5 33 11.3 ESE 13 24 7 13 1011.3 1010.9 0.0
22/02:00pm 33.1 31.9 15.1 33 11.2 ESE 15 24 8 13 1011.7 1011.3 0.0
22/01:30pm 33.7 33.5 16.6 36 10.9 E 13 20 7 11 1012.0 1011.6 0.0
22/01:00pm 32.4 30.9 15.4 36 10.6 ESE 17 24 9 13 1012.3 1011.9 0.0
22/12:30pm 32.5 31.6 16.8 39 10.0 E 17 26 9 14 1012.6 1012.2 0.0
22/12:00pm 32.0 30.6 15.5 37 10.3 E 17 24 9 13 1013.2 1012.8 0.0
22/11:30am 31.3 30.7 17.6 44 8.8 E 17 26 9 14 1013.7 1013.3 0.0
22/11:00am 30.0 29.2 17.1 46 8.2 ESE 17 24 9 13 1014.2 1013.8 0.0
22/10:30am 29.5 29.8 18.0 50 7.4 ESE 13 24 7 13 1014.4 1014.0 0.0
22/10:00am 28.3 29.2 18.4 55 6.4 ESE 11 19 6 10 1014.8 1014.4 0.0
22/09:30am 27.2 28.7 19.0 61 5.3 SE 9 15 5 8 1014.8 1014.4 0.0
22/09:00am 25.8 27.7 19.0 66 4.4 ESE 7 11 4 6 1014.7 1014.3 0.0
22/08:30am 24.4 28.0 19.7 75 3.0 CALM 0 6 0 3 1014.6 1014.2 0.0
22/08:00am 22.0 25.4 19.4 85 1.7 CALM 0 0 0 0 1014.6 1014.2 0.0
22/07:30am 19.0 21.7 17.7 92 0.8 CALM 0 0 0 0 1014.3 1013.9 0.0
22/07:00am 18.4 20.6 16.4 88 1.2 CALM 0 0 0 0 1014.0 1013.6 0.0
22/06:30am 19.2 21.7 17.3 89 1.2 CALM 0 0 0 0 1014.0 1013.6 0.0
22/06:00am 19.5 22.3 18.0 91 0.9 CALM 0 0 0 0 1013.8 1013.4 0.0
22/05:30am 19.8 22.5 17.8 88 1.2 CALM 0 0 0 0 1013.6 1013.2 0.0
22/05:00am 20.1 23.0 18.1 88 1.2 CALM 0 4 0 2 1013.2 1012.8 0.0
22/04:30am 20.2 22.5 17.6 85 1.6 E 2 7 1 4 1013.1 1012.7 0.0
22/04:00am 20.5 22.9 17.1 81 2.1 CALM 0 0 0 0 1013.1 1012.7 0.0
22/03:30am 21.4 24.0 17.4 78 2.5 CALM 0 4 0 2 1013.3 1012.9 0.0
22/03:00am 22.2 23.9 18.4 79 2.4 SSE 7 11 4 6 1013.4 1013.0 0.0
22/02:30am 21.2 22.7 16.6 75 2.8 SSE 4 7 2 4 1013.6 1013.2 0.0
22/02:00am 21.9 23.1 16.8 73 3.1 SSE 6 7 3 4 1013.7 1013.3 0.0
22/01:30am 22.6 23.8 16.9 70 3.5 SE 6 7 3 4 1013.9 1013.5 0.0
22/01:00am 23.2 24.4 17.4 70 3.6 SE 7 9 4 5 1013.9 1013.5 0.0
22/12:30am 23.6 25.0 17.3 67 3.9 SE 6 9 3 5 1013.9 1013.5 0.0
22/12:00am 24.2 25.4 17.4 65 4.2 SSE 7 9 4 5 1014.0 1013.6 0.0
 
Date/Time
CST
Temp
°C
App
Temp
°C
Dew
Point
°C
Rel
Hum
%
Delta-T
°C
Wind Press
QNH
hPa
Press
MSL
hPa
Rain since
9am
mm
Dir  Spd
km/h
Gust
km/h
Spd
kts
Gust
kts
21/11:30pm 24.9 26.3 17.9 65 4.4 SE 7 13 4 7 1014.2 1013.8 0.0
21/11:00pm 25.4 26.4 17.8 62 4.8 SE 9 13 5 7 1014.2 1013.8 0.0
21/10:30pm 25.8 26.8 17.7 61 5.1 SE 9 11 5 6 1014.2 1013.8 0.0
21/10:00pm 26.3 27.0 17.9 60 5.3 SE 11 19 6 10 1014.2 1013.8 0.0
21/09:30pm 26.8 27.2 18.1 59 5.5 SE 13 22 7 12 1014.0 1013.6 0.0
21/09:00pm 27.3 27.8 18.3 58 5.8 ESE 13 24 7 13 1013.6 1013.2 0.0
21/08:30pm 27.8 28.6 18.2 56 6.1 ESE 11 19 6 10 1013.3 1012.9 0.0
21/08:00pm 28.2 29.1 18.3 55 6.3 SE 11 15 6 8 1013.0 1012.6 0.0
21/07:30pm 28.8 29.3 18.3 53 6.7 SE 13 20 7 11 1012.5 1012.1 0.0
21/07:00pm 29.4 30.8 17.9 50 7.4 ESE 7 11 4 6 1012.0 1011.6 0.0
21/06:30pm 29.8 30.7 17.6 48 7.8 ESE 9 15 5 8 1011.5 1011.1 0.0
21/06:00pm 30.6 30.3 17.3 45 8.5 ESE 15 20 8 11 1011.2 1010.8 0.0
21/05:30pm 31.2 31.6 15.2 38 9.9 ESE 7 11 4 6 1010.9 1010.5 0.0
21/05:00pm 31.4 31.8 15.4 38 9.9 SE 7 17 4 9 1010.8 1010.4 0.0
21/04:30pm 31.5 30.8 15.5 38 10.0 SE 13 19 7 10 1010.9 1010.5 0.0
21/04:00pm 32.0 30.6 14.6 34 10.7 SE 15 20 8 11 1010.9 1010.5 0.0
21/03:30pm 33.1 33.1 15.1 33 11.2 NE 9 13 5 7 1011.0 1010.6 0.0
21/03:00pm 32.0 31.5 15.9 38 10.1 E 13 22 7 12 1011.3 1010.9 0.0
21/02:30pm 32.5 32.0 15.9 36 10.4 ENE 13 20 7 11 1011.7 1011.3 0.0
21/02:00pm 31.3 31.2 16.1 40 9.5 E 11 20 6 11 1012.3 1011.9 0.0
21/01:30pm 31.7 31.4 16.4 39 9.7 NE 13 20 7 11 1012.7 1012.3 0.0
21/01:00pm 32.2 33.6 17.7 42 9.3 SE 7 20 4 11 1013.3 1012.9 0.0
21/12:30pm 29.9 29.3 16.7 45 8.3 SE 15 26 8 14 1014.0 1013.6 0.0
21/12:00pm 29.3 28.6 16.5 46 8.0 SE 15 22 8 12 1014.5 1014.1 0.0
21/11:30am 28.9 28.8 16.1 46 8.0 ESE 11 19 6 10 1014.8 1014.4 0.0
21/11:00am 27.9 28.4 16.5 50 7.1 E 9 13 5 7 1015.1 1014.7 0.0
21/10:30am 26.5 27.8 17.0 56 5.9 ESE 6 11 3 6 1015.4 1015.0 0.0
21/10:00am 24.9 25.6 17.1 62 4.9 SE 9 13 5 7 1015.7 1015.3 0.0
21/09:30am 24.1 25.0 13.9 53 6.0 E 2 7 1 4 1015.6 1015.2 0.0
21/09:00am 21.9 22.7 12.5 55 5.3 CALM 0 0 0 0 1015.6 1015.2 0.0
21/08:30am 19.0 19.6 12.0 64 3.9 CALM 0 0 0 0 1015.4 1015.0 0.0
21/08:00am 16.2 16.8 11.8 75 2.4 CALM 0 0 0 0 1014.9 1014.5 0.0
21/07:30am 13.9 14.3 11.2 84 1.4 CALM 0 0 0 0 1014.7 1014.3 0.0
21/07:00am 13.1 13.3 10.6 85 1.3 CALM 0 0 0 0 1014.6 1014.2 0.0
21/06:30am 13.0 13.2 10.5 85 1.3 CALM 0 0 0 0 1014.3 1013.9 0.0
21/06:00am 13.3 13.4 10.3 82 1.6 CALM 0 0 0 0 1013.8 1013.4 0.0
21/05:30am 13.6 13.8 10.6 82 1.6 CALM 0 0 0 0 1013.8 1013.4 0.0
21/05:00am 13.8 14.0 10.6 81 1.7 CALM 0 0 0 0 1013.7 1013.3 0.0
21/04:30am 14.1 14.3 10.7 80 1.8 CALM 0 0 0 0 1013.8 1013.4 0.0
21/04:00am 14.5 14.7 10.5 77 2.1 CALM 0 0 0 0 1013.8 1013.4 0.0
21/03:30am 14.9 15.1 10.5 75 2.3 CALM 0 0 0 0 1014.2 1013.8 0.0
21/03:00am 15.3 15.5 10.5 73 2.5 CALM 0 4 0 2 1014.3 1013.9 0.0
21/02:30am 15.8 15.9 10.3 70 2.9 CALM 0 0 0 0 1014.4 1014.0 0.0
21/02:00am 16.5 16.0 10.6 68 3.2 SSW 4 7 2 4 1014.6 1014.2 0.0
21/01:30am 16.6 16.8 10.5 67 3.3 CALM 0 0 0 0 1014.8 1014.4 0.0
21/01:00am 17.2 17.0 10.3 64 3.7 SSW 2 6 1 3 1015.0 1014.6 0.0
21/12:30am 17.5 16.5 10.4 63 3.8 SSW 6 7 3 4 1015.1 1014.7 0.0
21/12:00am 18.0 18.2 10.4 61 4.1 CALM 0 0 0 0 1015.1 1014.7 0.0
 
Date/Time
CST
Temp
°C
App
Temp
°C
Dew
Point
°C
Rel
Hum
%
Delta-T
°C
Wind Press
QNH
hPa
Press
MSL
hPa
Rain since
9am
mm
Dir  Spd
km/h
Gust
km/h
Spd
kts
Gust
kts
20/11:30pm 18.7 18.8 10.3 58 4.5 CALM 0 0 0 0 1015.0 1014.6 0.0
20/11:00pm 19.7 19.8 10.1 54 5.2 CALM 0 4 0 2 1015.0 1014.6 0.0

Other Formats:

Comma delimited format used in spreadsheet applications
http://www.bom.gov.au/fwo/IDD60801/IDD60801.94143.axf

JavaScript Object Notation format (JSON) in row-major order
http://www.bom.gov.au/fwo/IDD60801/IDD60801.94143.json